Time;durP1;ratioP1;P1;durP2;ratioP2;P2;SDS_P1;SDS_P2;PMS_P1;PMS_P2;Temp;Humidity;BMP_temperature;BMP_pressure;BME280_temperature;BME280_humidity;BME280_pressure;Samples;Min_cycle;Max_cycle;Signal;HPM_P1;HPM_P2
2023/05/02 00:01:04;;;;;;;30.92;18.73;;;;;;;10.99;100.00;101948.84;5092025;28;20558;-77
2023/05/02 00:03:31;;;;;;;33.15;20.08;;;;;;;10.97;100.00;101947.09;5093621;28;20036;-77
2023/05/02 00:05:57;;;;;;;31.20;18.88;;;;;;;11.04;100.00;101954.00;5093727;28;20028;-77
2023/05/02 00:08:22;;;;;;;32.75;19.58;;;;;;;11.08;100.00;101957.44;5093152;28;20020;-77
2023/05/02 00:10:48;;;;;;;31.73;19.20;;;;;;;11.15;100.00;101964.34;5088987;28;20029;-77
2023/05/02 00:13:13;;;;;;;33.28;19.45;;;;;;;11.25;100.00;101969.50;5100428;28;20063;-77
2023/05/02 00:15:38;;;;;;;32.10;18.52;;;;;;;11.26;100.00;101967.75;5092184;28;20475;-77
2023/05/02 00:18:03;;;;;;;32.38;19.48;;;;;;;11.27;100.00;101969.47;5091835;28;20122;-77
2023/05/02 00:20:29;;;;;;;32.03;19.50;;;;;;;11.17;100.00;101963.47;5093134;28;20395;-77
2023/05/02 00:22:56;;;;;;;33.95;19.70;;;;;;;11.23;100.00;101970.38;5092196;28;20081;-77
2023/05/02 00:25:21;;;;;;;34.33;20.25;;;;;;;11.25;100.00;101966.03;5092576;28;20028;-77
2023/05/02 00:27:49;;;;;;;32.70;19.60;;;;;;;11.23;100.00;101973.84;5090592;28;20413;-77
2023/05/02 00:30:15;;;;;;;30.15;19.02;;;;;;;11.32;100.00;101983.38;5091515;28;20027;-77
2023/05/02 00:32:40;;;;;;;32.78;18.75;;;;;;;11.30;100.00;101979.03;5083023;28;20033;-77
2023/05/02 00:35:06;;;;;;;33.10;18.90;;;;;;;11.26;100.00;101970.38;5091522;28;20489;-77
2023/05/02 00:37:31;;;;;;;33.90;19.00;;;;;;;11.37;100.00;101981.56;5092477;28;20043;-77
2023/05/02 00:39:57;;;;;;;33.08;18.90;;;;;;;11.34;100.00;101989.44;5093410;28;20099;-77
2023/05/02 00:42:22;;;;;;;28.98;18.60;;;;;;;11.34;100.00;101986.81;5093668;28;20444;-77
2023/05/02 00:44:48;;;;;;;30.95;18.63;;;;;;;11.33;100.00;101985.09;5084205;28;20031;-77
2023/05/02 00:47:14;;;;;;;31.65;18.98;;;;;;;11.36;100.00;101981.59;5092926;28;20403;-77
2023/05/02 00:49:39;;;;;;;31.67;18.65;;;;;;;11.37;100.00;101983.31;5095055;28;20081;-77
2023/05/02 00:52:04;;;;;;;27.83;17.83;;;;;;;11.30;100.00;101985.13;5090873;28;20028;-77
2023/05/02 00:54:30;;;;;;;28.23;16.73;;;;;;;11.28;100.00;101993.84;5093650;28;20024;-77
2023/05/02 00:56:56;;;;;;;27.20;16.02;;;;;;;11.18;100.00;101982.59;5090627;28;20085;-77
2023/05/02 00:59:21;;;;;;;24.13;16.05;;;;;;;11.18;100.00;101987.81;5100500;28;20032;-77
2023/05/02 01:02:21;;;;;;;26.00;15.65;;;;;;;11.16;100.00;101997.44;5094950;28;20408;-77
2023/05/02 01:05:12;;;;;;;24.58;15.55;;;;;;;11.10;100.00;101984.41;5083424;28;20043;-77
2023/05/02 01:08:13;;;;;;;22.83;14.80;;;;;;;11.09;100.00;101985.31;5097474;28;20028;-77
2023/05/02 01:10:51;;;;;;;27.08;15.52;;;;;;;11.10;100.00;101987.88;5092005;28;20039;-77
2023/05/02 01:13:21;;;;;;;26.13;15.00;;;;;;;11.05;100.00;101997.47;5101453;28;20058;-77
2023/05/02 01:15:50;;;;;;;25.15;14.13;;;;;;;11.04;100.00;101994.91;5090523;28;20032;-78
2023/05/02 01:18:19;;;;;;;21.08;13.23;;;;;;;10.93;100.00;101988.00;5091955;28;20027;-77
2023/05/02 01:20:50;;;;;;;23.63;14.05;;;;;;;10.76;100.00;101995.09;5090524;28;20031;-77
2023/05/02 01:23:42;;;;;;;22.63;13.18;;;;;;;10.59;100.00;102000.38;5092810;28;20036;-77
2023/05/02 01:26:28;;;;;;;20.98;12.43;;;;;;;10.40;100.00;101999.59;5091381;28;20043;-77
2023/05/02 01:29:08;;;;;;;18.65;10.68;;;;;;;10.28;100.00;101990.09;5090430;28;20035;-77
2023/05/02 01:31:47;;;;;;;17.80;11.02;;;;;;;10.26;100.00;101999.63;5088446;28;20479;-77
2023/05/02 01:34:12;;;;;;;18.70;10.55;;;;;;;10.25;100.00;101994.41;5091909;28;20126;-77
2023/05/02 01:36:43;;;;;;;17.45;10.48;;;;;;;10.28;100.00;101991.84;5091944;28;20091;-77
2023/05/02 01:39:12;;;;;;;20.80;10.90;;;;;;;10.25;100.00;101997.03;5083012;28;20425;-77
2023/05/02 01:41:39;;;;;;;16.85;10.57;;;;;;;10.22;100.00;101997.03;5086193;28;20024;-77
2023/05/02 01:44:07;;;;;;;20.08;11.02;;;;;;;10.05;100.00;101984.91;5086973;28;20056;-77
2023/05/02 01:46:37;;;;;;;16.75;10.77;;;;;;;10.13;100.00;102002.25;5091131;28;20526;-77
2023/05/02 01:49:06;;;;;;;20.50;11.35;;;;;;;10.06;100.00;101999.69;5090169;28;20109;-77
2023/05/02 01:51:36;;;;;;;18.70;10.48;;;;;;;10.09;100.00;102007.47;5089635;28;20069;-77
2023/05/02 01:54:04;;;;;;;16.98;10.25;;;;;;;10.06;100.00;102002.28;5089396;28;20036;-77
2023/05/02 01:56:34;;;;;;;16.48;9.93;;;;;;;10.12;100.00;102003.16;5090777;28;20483;-77
2023/05/02 01:59:00;;;;;;;16.65;9.98;;;;;;;10.18;100.00;102013.56;5098108;28;20491;-77
2023/05/02 02:01:29;;;;;;;18.98;9.90;;;;;;;10.23;100.00;102015.25;5091287;28;20027;-77
2023/05/02 02:03:56;;;;;;;16.33;10.27;;;;;;;10.32;100.00;102019.59;5089673;28;20118;-77
2023/05/02 02:06:21;;;;;;;17.52;10.85;;;;;;;10.37;100.00;102015.25;5097767;28;20028;-77
2023/05/02 02:08:47;;;;;;;20.33;11.00;;;;;;;10.44;100.00;102021.31;5091687;28;20093;-77
2023/05/02 02:11:19;;;;;;;18.45;10.48;;;;;;;10.46;100.00;102024.75;5089493;28;20032;-78
2023/05/02 02:13:49;;;;;;;17.90;11.52;;;;;;;10.42;100.00;102023.91;5087529;28;20076;-77
2023/05/02 02:16:20;;;;;;;18.60;11.20;;;;;;;10.44;100.00;102023.91;5090168;28;20097;-78
2023/05/02 02:18:46;;;;;;;18.45;11.38;;;;;;;10.50;100.00;102027.38;5094200;28;20032;-77
2023/05/02 02:21:17;;;;;;;20.17;12.23;;;;;;;10.54;100.00;102043.88;5091383;28;20123;-77
2023/05/02 02:23:46;;;;;;;19.50;11.80;;;;;;;10.52;100.00;102035.16;5090504;28;20052;-77
2023/05/02 02:26:13;;;;;;;20.65;11.85;;;;;;;10.52;100.00;102043.84;5090634;28;20032;-77
2023/05/02 02:28:38;;;;;;;19.08;11.55;;;;;;;10.46;100.00;102037.81;5090007;28;20059;-77
2023/05/02 02:31:04;;;;;;;18.90;12.10;;;;;;;10.55;100.00;102042.97;5093687;28;20047;-77
2023/05/02 02:33:30;;;;;;;19.10;11.93;;;;;;;10.51;100.00;102039.53;5076666;28;20114;-77
2023/05/02 02:36:17;;;;;;;21.08;12.65;;;;;;;10.55;100.00;102048.19;5086880;28;20383;-77
2023/05/02 02:39:08;;;;;;;19.58;12.30;;;;;;;10.53;100.00;102045.63;5076660;28;20036;-78
2023/05/02 02:41:49;;;;;;;18.77;11.93;;;;;;;10.50;100.00;102050.84;5086922;28;20463;-77
2023/05/02 02:44:46;;;;;;;19.92;12.48;;;;;;;10.49;100.00;102056.91;5091103;28;20382;-77
2023/05/02 02:47:38;;;;;;;21.15;12.25;;;;;;;10.44;100.00;102053.47;5089397;28;20028;-77
2023/05/02 02:50:15;;;;;;;20.20;12.57;;;;;;;10.45;100.00;102059.53;5092680;28;20540;-77
2023/05/02 02:52:54;;;;;;;19.48;12.43;;;;;;;10.42;100.00;102057.81;5094016;28;20031;-77
2023/05/02 02:55:46;;;;;;;23.13;11.93;;;;;;;10.43;100.00;102059.56;5095990;28;20032;-77
2023/05/02 02:58:18;;;;;;;20.85;12.73;;;;;;;10.40;100.00;102059.56;5093286;28;20024;-77
2023/05/02 03:00:46;;;;;;;19.15;12.80;;;;;;;10.35;100.00;102052.63;5099145;28;20020;-77
2023/05/02 03:03:13;;;;;;;22.45;13.30;;;;;;;10.37;100.00;102058.72;5095109;28;20178;-77
2023/05/02 03:05:39;;;;;;;20.05;13.45;;;;;;;10.42;100.00;102076.06;5094314;28;20035;-77
2023/05/02 03:08:05;;;;;;;21.23;12.90;;;;;;;10.43;100.00;102069.09;5101273;28;20023;-77
2023/05/02 03:10:32;;;;;;;20.15;12.27;;;;;;;10.45;100.00;102078.66;5098402;28;20035;-77
2023/05/02 03:12:57;;;;;;;20.40;12.65;;;;;;;10.45;100.00;102081.25;5087280;28;20036;-77
2023/05/02 03:15:41;;;;;;;23.33;11.98;;;;;;;10.44;100.00;102081.28;5094858;28;20377;-77
2023/05/02 03:18:07;;;;;;;19.50;11.85;;;;;;;10.39;100.00;102086.50;5091087;28;20058;-77
2023/05/02 03:20:32;;;;;;;15.23;10.60;;;;;;;10.39;100.00;102089.09;5094252;28;20357;-77
2023/05/02 03:22:57;;;;;;;25.40;12.07;;;;;;;10.42;100.00;102090.84;5093810;28;20040;-77
2023/05/02 03:25:23;;;;;;;19.73;11.10;;;;;;;10.44;100.00;102096.91;5094112;28;20028;-77
2023/05/02 03:27:48;;;;;;;16.02;11.07;;;;;;;10.40;100.00;102095.16;5099014;28;20489;-77
2023/05/02 03:30:13;;;;;;;18.38;10.95;;;;;;;10.40;100.00;102095.16;5100570;28;20478;-77
2023/05/02 03:32:39;;;;;;;19.80;10.63;;;;;;;10.39;100.00;102099.53;5092845;28;20073;-77
2023/05/02 03:35:04;;;;;;;17.48;11.50;;;;;;;10.43;100.00;102101.28;5096707;28;20031;-77
2023/05/02 03:37:30;;;;;;;17.05;11.15;;;;;;;10.41;100.00;102100.41;5094744;28;20115;-77
2023/05/02 03:39:55;;;;;;;17.92;10.85;;;;;;;10.38;100.00;102103.00;5098283;28;20057;-77
2023/05/02 03:42:20;;;;;;;18.30;10.57;;;;;;;10.30;100.00;102086.53;5094028;28;20044;-77
2023/05/02 03:44:46;;;;;;;18.13;10.95;;;;;;;10.28;100.00;102090.88;5094427;28;20099;-77
2023/05/02 03:47:12;;;;;;;17.08;12.20;;;;;;;10.23;100.00;102093.44;5093613;28;20031;-77
2023/05/02 03:49:39;;;;;;;17.40;11.30;;;;;;;10.26;100.00;102106.50;5092789;28;20043;-77
2023/05/02 03:52:04;;;;;;;19.58;10.88;;;;;;;10.27;100.00;102104.78;5095602;28;20028;-77
2023/05/02 03:54:32;;;;;;;19.83;11.68;;;;;;;10.28;100.00;102111.72;5094202;28;20463;-77
2023/05/02 03:56:58;;;;;;;19.75;11.07;;;;;;;10.28;100.00;102117.81;5091457;28;20119;-77
2023/05/02 03:59:23;;;;;;;20.30;11.57;;;;;;;10.29;100.00;102113.44;5095261;28;20147;-77
2023/05/02 04:01:49;;;;;;;18.88;12.20;;;;;;;10.32;100.00;102119.53;5093845;28;20042;-77
2023/05/02 04:04:15;;;;;;;19.45;11.70;;;;;;;10.34;100.00;102131.72;5104600;28;20078;-77
2023/05/02 04:06:40;;;;;;;20.67;11.15;;;;;;;10.31;100.00;102130.84;5094434;28;20103;-77
2023/05/02 04:09:06;;;;;;;17.42;10.85;;;;;;;10.27;100.00;102138.66;5092246;28;20071;-77
2023/05/02 04:11:31;;;;;;;19.40;10.57;;;;;;;10.24;100.00;102136.03;5095578;28;20036;-77
2023/05/02 04:13:56;;;;;;;16.65;9.00;;;;;;;10.23;100.00;102140.34;5091457;28;20269;-77
2023/05/02 04:16:22;;;;;;;18.77;8.98;;;;;;;10.16;100.00;102133.41;5092709;28;20047;-78
2023/05/02 04:18:47;;;;;;;15.32;8.63;;;;;;;10.14;100.00;102127.34;5093163;28;20016;-77
2023/05/02 04:21:12;;;;;;;13.88;8.07;;;;;;;10.22;100.00;102137.75;5092421;28;20028;-77
2023/05/02 04:23:38;;;;;;;11.18;7.55;;;;;;;10.16;100.00;102145.59;5093544;28;20066;-77
2023/05/02 04:26:05;;;;;;;14.00;6.68;;;;;;;10.19;100.00;102150.78;5091651;28;20507;-77
2023/05/02 04:28:30;;;;;;;12.43;5.72;;;;;;;10.17;100.00;102163.84;5090459;28;20103;-77
2023/05/02 04:30:56;;;;;;;14.02;5.85;;;;;;;10.19;100.00;102159.47;5093959;28;20450;-78
2023/05/02 04:33:22;;;;;;;10.85;6.20;;;;;;;10.21;100.00;102168.19;5097397;28;20487;-77
2023/05/02 04:35:48;;;;;;;11.68;6.32;;;;;;;10.18;100.00;102172.53;5092397;28;20094;-78
2023/05/02 04:38:13;;;;;;;12.73;6.50;;;;;;;10.09;100.00;102157.75;5093046;28;20044;-77
2023/05/02 04:40:39;;;;;;;12.70;6.93;;;;;;;10.18;100.00;102177.72;5091535;28;20428;-77
2023/05/02 04:43:04;;;;;;;15.00;5.03;;;;;;;10.11;100.00;102176.88;5091405;28;20036;-76
2023/05/02 04:45:30;;;;;;;9.88;3.80;;;;;;;10.02;100.00;102198.56;5090985;28;20429;-77
2023/05/02 04:47:55;;;;;;;8.65;3.22;;;;;;;9.95;100.00;102190.75;5092449;28;20050;-77
2023/05/02 04:50:20;;;;;;;8.00;2.80;;;;;;;9.84;100.00;102199.44;5091963;28;20035;-77
2023/05/02 04:52:46;;;;;;;6.13;2.45;;;;;;;9.82;100.00;102201.16;5088824;28;20063;-77
2023/05/02 04:55:11;;;;;;;6.10;2.40;;;;;;;9.92;100.00;102214.19;5108090;28;20024;-77
2023/05/02 04:57:38;;;;;;;5.45;2.40;;;;;;;9.91;99.22;102213.34;5090083;28;20050;-77
2023/05/02 05:00:04;;;;;;;7.45;2.50;;;;;;;9.96;99.85;102222.00;5090948;28;20024;-77
2023/05/02 05:02:30;;;;;;;5.97;2.78;;;;;;;9.91;98.63;102225.47;5087973;28;20476;-77
2023/05/02 05:04:55;;;;;;;7.80;2.60;;;;;;;9.84;100.00;102224.59;5099418;28;20071;-77
2023/05/02 05:07:21;;;;;;;5.57;2.80;;;;;;;9.87;100.00;102232.41;5091607;28;20028;-77
2023/05/02 05:09:46;;;;;;;8.73;2.40;;;;;;;9.84;100.00;102240.22;5092071;28;20026;-78
2023/05/02 05:12:11;;;;;;;7.22;2.70;;;;;;;9.63;99.70;102227.16;5091048;28;20038;-78
2023/05/02 05:14:37;;;;;;;5.85;2.50;;;;;;;9.73;99.51;102241.94;5089567;28;20498;-77
2023/05/02 05:17:02;;;;;;;8.23;2.50;;;;;;;9.65;99.07;102241.94;5091658;28;20043;-78
2023/05/02 05:19:27;;;;;;;6.68;2.05;;;;;;;9.72;99.47;102250.63;5090568;28;20028;-78
2023/05/02 05:21:53;;;;;;;8.82;2.55;;;;;;;9.71;98.48;102254.09;5092125;28;20055;-78
2023/05/02 05:24:18;;;;;;;6.55;2.35;;;;;;;9.68;99.16;102261.88;5099471;28;20413;-77
2023/05/02 05:26:43;;;;;;;5.85;2.30;;;;;;;9.71;98.58;102262.78;5095828;28;20032;-78
2023/05/02 05:29:09;;;;;;;8.00;2.33;;;;;;;9.78;98.78;102266.28;5092071;28;20035;-77
2023/05/02 05:31:34;;;;;;;7.72;2.67;;;;;;;9.82;97.46;102261.06;5090802;28;20028;-77
2023/05/02 05:34:01;;;;;;;6.97;2.35;;;;;;;9.94;97.47;102260.25;5101645;28;20031;-77
2023/05/02 05:36:26;;;;;;;7.80;2.60;;;;;;;10.07;94.47;102256.78;5095194;28;20040;-78
2023/05/02 05:38:52;;;;;;;4.50;2.10;;;;;;;10.34;94.13;102262.91;5090135;28;20032;-77
2023/05/02 05:41:17;;;;;;;7.47;2.50;;;;;;;10.48;91.02;102266.38;5096434;28;20031;-77
2023/05/02 05:43:42;;;;;;;7.93;2.65;;;;;;;10.52;91.03;102264.63;5089234;28;20043;-77
2023/05/02 05:46:08;;;;;;;6.55;2.25;;;;;;;10.46;92.04;102262.03;5091698;28;20020;-76
2023/05/02 05:48:33;;;;;;;6.20;2.25;;;;;;;10.43;92.32;102273.34;5092721;28;20107;-77
2023/05/02 05:51:03;;;;;;;7.45;2.80;;;;;;;10.35;89.39;102271.59;5090920;28;20060;-77
2023/05/02 05:53:28;;;;;;;5.55;2.38;;;;;;;10.28;91.10;102282.00;5090410;28;20028;-77
2023/05/02 05:55:53;;;;;;;6.43;2.30;;;;;;;10.29;92.57;102278.53;5092613;28;22091;-78
2023/05/02 05:58:19;;;;;;;9.32;2.40;;;;;;;10.28;89.89;102282.00;5097287;28;20024;-77
2023/05/02 06:00:44;;;;;;;6.65;2.40;;;;;;;10.18;91.47;102275.03;5093865;28;20012;-77
2023/05/02 06:03:10;;;;;;;6.70;2.35;;;;;;;10.21;91.24;102285.44;5085362;28;20036;-77
2023/05/02 06:05:35;;;;;;;10.05;2.70;;;;;;;10.22;89.99;102288.94;5105545;28;20031;-77
2023/05/02 06:08:00;;;;;;;7.13;2.38;;;;;;;10.25;88.25;102296.75;5090749;28;20479;-78
2023/05/02 06:10:26;;;;;;;6.72;2.00;;;;;;;10.26;89.61;102296.78;5090376;28;20410;-77
2023/05/02 06:12:51;;;;;;;7.63;2.15;;;;;;;10.32;88.62;102290.69;5088904;28;20024;-78
2023/05/02 06:15:16;;;;;;;6.75;2.03;;;;;;;10.44;88.23;102308.09;5087268;28;20089;-77
2023/05/02 06:17:42;;;;;;;4.78;2.03;;;;;;;10.57;87.20;102312.44;5091032;28;20459;-78
2023/05/02 06:20:08;;;;;;;5.75;2.22;;;;;;;10.70;84.24;102314.19;5091231;28;20116;-78
2023/05/02 06:22:33;;;;;;;7.03;2.10;;;;;;;10.80;83.84;102311.56;5091010;28;20408;-77
2023/05/02 06:24:59;;;;;;;7.53;2.10;;;;;;;10.80;83.54;102307.22;5093406;28;20029;-76
2023/05/02 06:27:25;;;;;;;8.38;2.00;;;;;;;10.88;82.11;102313.28;5094698;28;20045;-78
2023/05/02 06:29:51;;;;;;;5.13;1.73;;;;;;;10.82;81.60;102308.06;5092146;28;20103;-77
2023/05/02 06:32:16;;;;;;;5.85;2.15;;;;;;;10.82;81.29;102333.28;5102671;28;20028;-78
2023/05/02 06:34:42;;;;;;;5.25;1.77;;;;;;;10.70;80.44;102329.84;5095038;28;20485;-78
2023/05/02 06:37:07;;;;;;;11.43;2.38;;;;;;;10.71;82.25;102341.13;5095349;28;20046;-78
2023/05/02 06:39:32;;;;;;;8.68;2.17;;;;;;;10.80;82.87;102340.28;5099141;28;20024;-77
2023/05/02 06:41:58;;;;;;;5.47;1.85;;;;;;;10.77;80.54;102351.56;5088774;28;20555;-78
2023/05/02 06:44:23;;;;;;;6.18;2.40;;;;;;;10.84;78.26;102348.06;5100589;28;20461;-76
2023/05/02 06:46:49;;;;;;;6.13;1.88;;;;;;;10.98;79.73;102354.13;5106122;28;20494;-76
2023/05/02 06:49:15;;;;;;;9.25;2.47;;;;;;;11.06;76.97;102362.00;5093482;28;20028;-76
2023/05/02 06:51:40;;;;;;;7.50;2.22;;;;;;;10.97;78.44;102364.59;5093590;28;20108;-75
2023/05/02 06:54:06;;;;;;;5.65;2.00;;;;;;;10.99;80.92;102355.91;5092712;28;20028;-76
2023/05/02 06:56:31;;;;;;;9.35;2.33;;;;;;;10.97;78.27;102373.28;5095635;28;20035;-76
2023/05/02 06:58:56;;;;;;;9.95;2.50;;;;;;;10.92;79.36;102364.63;5107606;28;20047;-76
2023/05/02 07:01:22;;;;;;;8.15;2.28;;;;;;;10.96;82.68;102349.81;5103820;28;20024;-76
2023/05/02 07:03:47;;;;;;;7.43;2.30;;;;;;;11.26;81.44;102369.78;5093560;28;20039;-76
2023/05/02 07:06:13;;;;;;;14.00;2.55;;;;;;;11.39;79.08;102381.94;5091618;28;20390;-76
2023/05/02 07:08:38;;;;;;;8.75;2.50;;;;;;;11.71;80.15;102373.16;5101968;28;20023;-76
2023/05/02 07:11:03;;;;;;;10.13;2.42;;;;;;;11.98;75.87;102379.16;5093994;28;20395;-76
2023/05/02 07:13:28;;;;;;;7.70;2.47;;;;;;;12.23;74.58;102393.84;5093046;28;20529;-77
2023/05/02 07:15:54;;;;;;;8.27;2.35;;;;;;;12.40;73.98;102389.38;5090651;28;20062;-77
2023/05/02 07:18:20;;;;;;;7.72;2.50;;;;;;;12.50;73.82;102394.53;5093149;28;20452;-77
2023/05/02 07:20:46;;;;;;;10.30;3.22;;;;;;;12.55;73.89;102400.59;5094017;28;20026;-77
2023/05/02 07:23:11;;;;;;;8.55;3.17;;;;;;;12.53;73.02;102405.00;5094532;28;20032;-77
2023/05/02 07:25:36;;;;;;;12.30;3.00;;;;;;;12.47;70.29;102399.81;5094057;28;20119;-77
2023/05/02 07:28:02;;;;;;;8.52;2.30;;;;;;;12.40;70.89;102404.19;5094070;28;20024;-77
2023/05/02 07:30:27;;;;;;;7.60;2.60;;;;;;;12.50;71.23;102415.47;5094823;28;20360;-77
2023/05/02 07:32:52;;;;;;;8.57;2.88;;;;;;;12.60;72.91;102414.53;5094229;28;20105;-77
2023/05/02 07:35:18;;;;;;;9.45;2.72;;;;;;;12.43;68.98;102408.56;5094002;28;20032;-77
2023/05/02 07:37:43;;;;;;;7.90;2.55;;;;;;;12.36;68.26;102419.03;5094321;28;20039;-77
2023/05/02 07:40:09;;;;;;;8.57;2.70;;;;;;;12.21;71.50;102413.03;5094288;28;20070;-76
2023/05/02 07:42:35;;;;;;;9.40;3.20;;;;;;;11.95;71.28;102419.22;5094281;28;20036;-77
2023/05/02 07:45:00;;;;;;;11.20;2.63;;;;;;;11.73;71.24;102429.72;5093601;28;20020;-77
2023/05/02 07:47:25;;;;;;;10.52;2.60;;;;;;;11.89;72.16;102427.97;5093203;28;20039;-77
2023/05/02 07:49:51;;;;;;;7.78;2.47;;;;;;;12.15;72.30;102434.84;5092539;28;20024;-77
2023/05/02 07:52:18;;;;;;;8.05;3.38;;;;;;;12.40;71.27;102435.59;5091660;28;20375;-77
2023/05/02 07:54:43;;;;;;;8.32;2.85;;;;;;;12.45;70.12;102412.88;5094550;28;20063;-77
2023/05/02 07:57:08;;;;;;;9.30;2.60;;;;;;;12.54;68.58;102435.50;5090992;28;20036;-78
2023/05/02 07:59:33;;;;;;;9.00;3.20;;;;;;;12.39;71.50;102432.09;5090611;28;20046;-78
2023/05/02 08:01:59;;;;;;;5.70;2.80;;;;;;;12.25;70.03;102431.28;5091348;28;20028;-78
2023/05/02 08:04:25;;;;;;;10.45;2.83;;;;;;;12.08;71.57;102435.75;5089718;28;20446;-80
2023/05/02 08:06:50;;;;;;;9.15;3.35;;;;;;;11.88;71.94;102435.81;5100805;28;20523;-78
2023/05/02 08:09:15;;;;;;;10.82;3.03;;;;;;;11.71;73.15;102451.53;5108854;28;20028;-79
2023/05/02 08:11:41;;;;;;;13.43;3.55;;;;;;;11.37;74.14;102427.19;5107453;28;20023;-78
2023/05/02 08:14:06;;;;;;;12.38;3.83;;;;;;;11.17;74.94;102456.78;5114232;28;20040;-79
2023/05/02 08:16:31;;;;;;;10.38;3.50;;;;;;;11.03;73.62;102461.16;5114538;28;20386;-79
2023/05/02 08:18:57;;;;;;;14.20;3.60;;;;;;;10.88;74.30;102451.56;5114219;28;20024;-78
2023/05/02 08:21:22;;;;;;;8.57;2.95;;;;;;;10.86;70.70;102468.97;5113875;28;20051;-79
2023/05/02 08:23:47;;;;;;;10.90;2.90;;;;;;;10.77;71.74;102474.19;5114462;28;20055;-78
2023/05/02 08:26:13;;;;;;;7.28;3.20;;;;;;;10.80;72.35;102476.78;5111661;28;20136;-79
2023/05/02 08:28:39;;;;;;;11.60;3.67;;;;;;;10.90;71.65;102486.38;5104627;28;20024;-79
2023/05/02 08:31:04;;;;;;;9.60;3.35;;;;;;;10.99;71.75;102489.00;5114456;28;20023;-79
2023/05/02 08:33:29;;;;;;;7.75;3.03;;;;;;;10.97;69.30;102490.72;5098317;28;20536;-79
2023/05/02 08:35:55;;;;;;;9.45;3.13;;;;;;;11.14;70.44;102489.88;5101482;28;20391;-79
2023/05/02 08:38:20;;;;;;;13.02;3.03;;;;;;;11.43;70.34;102490.72;5101682;28;20051;-78
2023/05/02 08:40:45;;;;;;;8.90;3.45;;;;;;;11.67;66.77;102488.94;5105877;28;20027;-79
2023/05/02 08:43:11;;;;;;;8.90;2.75;;;;;;;11.83;67.43;102488.03;5113629;28;20092;-78
2023/05/02 08:45:42;;;;;;;11.85;3.50;;;;;;;12.04;67.07;102499.38;5114104;28;20024;-78
2023/05/02 08:48:10;;;;;;;6.93;2.80;;;;;;;12.23;64.83;102495.81;5111379;28;20099;-78
2023/05/02 08:50:37;;;;;;;9.45;2.80;;;;;;;12.36;63.98;102494.88;5098600;28;20385;-78
2023/05/02 08:53:05;;;;;;;10.45;2.53;;;;;;;12.52;64.22;102505.25;5109695;28;20466;-79
2023/05/02 08:55:32;;;;;;;7.22;2.75;;;;;;;12.64;61.24;102500.84;5110503;28;20032;-78
2023/05/02 08:57:59;;;;;;;8.05;3.00;;;;;;;12.91;62.62;102501.53;5113745;28;20035;-78
2023/05/02 09:00:25;;;;;;;8.63;2.38;;;;;;;13.10;58.03;102499.66;5113942;28;20027;-77
2023/05/02 09:03:03;;;;;;;5.45;2.60;;;;;;;13.19;59.31;102491.75;5098820;28;20031;-78
2023/05/02 09:05:32;;;;;;;8.75;2.72;;;;;;;13.37;58.44;102510.81;5097658;28;20110;-78
2023/05/02 09:07:57;;;;;;;10.65;2.90;;;;;;;13.29;56.44;102514.38;5101850;28;20505;-78
2023/05/02 09:10:26;;;;;;;8.93;2.70;;;;;;;13.23;55.91;102517.00;5113277;28;20051;-78
2023/05/02 09:12:51;;;;;;;14.10;3.00;;;;;;;13.10;56.97;102512.75;5113217;28;20059;-78
2023/05/02 09:15:16;;;;;;;7.30;2.90;;;;;;;13.12;58.64;102517.09;5108218;28;20430;-79
2023/05/02 09:17:43;;;;;;;11.15;2.80;;;;;;;13.01;59.78;102518.91;5106187;28;20035;-79
2023/05/02 09:20:11;;;;;;;6.90;2.75;;;;;;;12.94;57.20;102524.22;5112007;28;20024;-78
2023/05/02 09:22:36;;;;;;;10.50;2.90;;;;;;;12.83;57.77;102525.16;5113085;27;20036;-79
2023/05/02 09:25:03;;;;;;;7.18;2.75;;;;;;;13.06;60.74;102521.50;5112554;28;20102;-78
2023/05/02 09:27:28;;;;;;;8.15;2.83;;;;;;;13.49;56.44;102508.97;5099940;28;20019;-78
2023/05/02 09:30:21;;;;;;;11.18;2.90;;;;;;;13.95;57.01;102526.84;5107441;28;20039;-78
2023/05/02 09:32:49;;;;;;;8.55;2.78;;;;;;;13.98;54.53;102516.34;5111504;28;20534;-78
2023/05/02 09:35:22;;;;;;;12.15;3.05;;;;;;;14.12;54.21;102531.91;5112656;28;20465;-78
2023/05/02 09:37:49;;;;;;;11.35;3.00;;;;;;;14.22;50.76;102519.56;5109363;28;20032;-79
2023/05/02 09:40:14;;;;;;;6.90;2.63;;;;;;;14.22;50.73;102532.69;5110296;28;20530;-79
2023/05/02 09:42:40;;;;;;;6.93;2.53;;;;;;;14.07;52.06;102540.75;5094504;28;20099;-79
2023/05/02 09:45:06;;;;;;;8.20;2.80;;;;;;;13.76;51.92;102547.16;5097738;28;20023;-78
2023/05/02 09:47:31;;;;;;;7.97;2.38;;;;;;;13.52;52.77;102545.63;5109908;28;20023;-78
2023/05/02 09:49:56;;;;;;;9.38;2.88;;;;;;;13.42;53.04;102545.72;5112587;28;20035;-78
2023/05/02 09:52:22;;;;;;;7.95;2.30;;;;;;;13.50;54.77;102551.75;5102907;28;20024;-78
2023/05/02 09:54:49;;;;;;;11.35;2.80;;;;;;;13.64;55.22;102559.53;5103186;28;20114;-78
2023/05/02 09:57:15;;;;;;;8.90;2.97;;;;;;;14.07;54.89;102556.47;5097675;28;20016;-79
2023/05/02 09:59:54;;;;;;;7.70;2.55;;;;;;;14.67;52.73;102547.00;5107030;28;20027;-77
2023/05/02 10:02:20;;;;;;;6.10;2.80;;;;;;;15.19;51.18;102542.75;5090559;28;20072;-78
2023/05/02 10:04:47;;;;;;;12.45;2.63;;;;;;;15.28;49.08;102547.88;5095042;28;20062;-78
2023/05/02 10:07:15;;;;;;;4.28;2.58;;;;;;;15.04;50.30;102549.13;5097134;28;20416;-77
2023/05/02 10:09:44;;;;;;;8.77;2.92;;;;;;;14.52;49.73;102545.47;5093276;28;20051;-79
2023/05/02 10:12:14;;;;;;;12.48;3.35;;;;;;;13.95;51.06;102557.47;5085735;28;20111;-78
2023/05/02 10:14:42;;;;;;;9.18;2.67;;;;;;;13.52;51.82;102557.88;5089055;28;20033;-78
2023/05/02 10:17:21;;;;;;;9.55;3.08;;;;;;;13.67;53.59;102555.13;5089985;28;20089;-79
2023/05/02 10:19:58;;;;;;;7.53;2.60;;;;;;;14.32;51.89;102551.81;5099070;28;20050;-79
2023/05/02 10:22:24;;;;;;;7.57;2.75;;;;;;;14.99;48.50;102550.94;5091828;28;20050;-79
2023/05/02 10:24:52;;;;;;;4.90;2.63;;;;;;;15.45;48.09;102552.84;5097852;28;20034;-79
2023/05/02 10:27:18;;;;;;;5.68;2.53;;;;;;;15.58;45.24;102556.16;5091308;28;20443;-78
2023/05/02 10:29:45;;;;;;;7.75;2.70;;;;;;;15.88;46.81;102560.03;5092334;28;20016;-78
2023/05/02 10:32:13;;;;;;;7.38;2.65;;;;;;;16.39;47.61;102554.66;5089989;28;20969;-78
2023/05/02 10:34:40;;;;;;;8.98;3.20;;;;;;;16.74;44.38;102545.13;5091359;28;20111;-78
2023/05/02 10:37:05;;;;;;;8.43;3.03;;;;;;;16.63;45.08;102555.91;5094449;28;20073;-78
2023/05/02 10:39:31;;;;;;;5.80;3.50;;;;;;;16.06;45.53;102559.69;5091964;28;20023;-77
2023/05/02 10:41:58;;;;;;;9.45;3.50;;;;;;;15.56;46.78;102566.66;5076034;28;20032;-79
2023/05/02 10:44:39;;;;;;;10.98;3.33;;;;;;;15.26;47.60;102572.44;5101277;28;20046;-78
2023/05/02 10:47:34;;;;;;;5.50;3.10;;;;;;;15.09;48.74;102568.31;5090837;28;20024;-78
2023/05/02 10:50:01;;;;;;;9.15;3.13;;;;;;;14.87;48.33;102569.50;5060292;28;20040;-78
2023/05/02 10:52:28;;;;;;;7.22;3.10;;;;;;;14.94;49.30;102564.16;5091175;28;20024;-79
2023/05/02 10:55:14;;;;;;;7.78;3.13;;;;;;;15.13;48.90;102570.00;5091261;28;20031;-78
2023/05/02 10:57:58;;;;;;;6.05;3.08;;;;;;;15.32;49.16;102577.59;5091643;28;20058;-78
2023/05/02 11:00:25;;;;;;;6.78;2.78;;;;;;;15.51;47.25;102567.66;5093212;28;20099;-77
2023/05/02 11:02:50;;;;;;;8.18;3.28;;;;;;;15.43;46.15;102558.16;5084113;28;20127;-78
2023/05/02 11:05:16;;;;;;;7.68;2.95;;;;;;;15.48;46.88;102571.22;5084265;28;20098;-78
2023/05/02 11:07:42;;;;;;;9.93;3.03;;;;;;;15.45;46.41;102579.13;5090493;28;20050;-78
2023/05/02 11:10:25;;;;;;;6.80;2.83;;;;;;;15.97;45.75;102580.03;5092003;28;20463;-76
2023/05/02 11:12:55;;;;;;;12.57;3.60;;;;;;;16.27;46.46;102576.81;5100587;28;20106;-78
2023/05/02 11:15:26;;;;;;;8.13;3.40;;;;;;;16.32;44.38;102576.75;5101748;28;20024;-78
2023/05/02 11:18:07;;;;;;;10.43;3.60;;;;;;;16.00;44.44;102585.25;5088607;28;20055;-77